TimeEST,TemperatureF,Dew PointF,Humidity,Sea Level PressureIn,VisibilityMPH,Wind Direction,Wind SpeedMPH,Gust SpeedMPH,PrecipitationIn,Events,Conditions,WindDirDegrees,DateUTC
12:15 AM,66.2,66.2,100,30.04,10.0,South,8.1,-,N/A,,Clear,190,2013-12-06 05:15:00
12:35 AM,66.2,64.4,94,30.04,10.0,SSW,10.4,-,N/A,,Clear,200,2013-12-06 05:35:00
12:55 AM,66.2,64.4,94,30.04,10.0,SSW,5.8,-,N/A,,Mostly Cloudy,200,2013-12-06 05:55:00
1:15 AM,64.4,64.4,100,30.03,10.0,South,6.9,-,N/A,,Scattered Clouds,190,2013-12-06 06:15:00
1:35 AM,64.4,64.4,100,30.03,10.0,South,6.9,-,N/A,,Clear,190,2013-12-06 06:35:00
1:55 AM,64.4,64.4,100,30.03,10.0,South,6.9,-,N/A,,Clear,180,2013-12-06 06:55:00
2:15 AM,64.4,64.4,100,30.02,10.0,South,6.9,-,N/A,,Clear,170,2013-12-06 07:15:00
2:35 AM,64.4,64.4,100,30.03,10.0,SSW,6.9,-,N/A,,Scattered Clouds,200,2013-12-06 07:35:00
2:55 AM,64.4,64.4,100,30.02,10.0,South,6.9,-,N/A,,Mostly Cloudy,190,2013-12-06 07:55:00
3:15 AM,66.2,66.2,100,30.02,10.0,SSW,6.9,-,N/A,,Overcast,200,2013-12-06 08:15:00
3:35 AM,66.2,66.2,100,30.03,10.0,SSW,5.8,-,N/A,,Overcast,200,2013-12-06 08:35:00
3:55 AM,66.2,66.2,100,30.02,10.0,South,8.1,-,N/A,,Overcast,190,2013-12-06 08:55:00
4:15 AM,66.2,64.4,94,30.01,10.0,South,8.1,-,N/A,,Overcast,190,2013-12-06 09:15:00
4:35 AM,66.2,64.4,94,30.01,10.0,South,8.1,-,N/A,,Mostly Cloudy,190,2013-12-06 09:35:00
4:55 AM,66.2,64.4,94,30.01,10.0,SSW,6.9,-,N/A,,Clear,200,2013-12-06 09:55:00
5:15 AM,68.0,64.4,88,30.01,10.0,South,6.9,-,N/A,,Clear,190,2013-12-06 10:15:00
5:35 AM,68.0,64.4,88,30.02,10.0,South,11.5,-,N/A,,Scattered Clouds,190,2013-12-06 10:35:00
5:55 AM,68.0,64.4,88,30.01,10.0,SSW,9.2,-,N/A,,Scattered Clouds,200,2013-12-06 10:55:00
6:15 AM,68.0,64.4,88,30.02,10.0,South,9.2,-,N/A,,Clear,190,2013-12-06 11:15:00
6:35 AM,68.0,64.4,88,30.02,10.0,SSW,6.9,-,N/A,,Clear,200,2013-12-06 11:35:00
6:55 AM,68.0,64.4,88,30.02,10.0,South,6.9,-,N/A,,Clear,190,2013-12-06 11:55:00
7:15 AM,68.0,64.4,88,30.03,10.0,South,6.9,-,N/A,,Clear,190,2013-12-06 12:15:00
7:35 AM,69.8,66.2,88,30.03,10.0,SSW,9.2,-,N/A,,Mostly Cloudy,210,2013-12-06 12:35:00
7:55 AM,69.8,66.2,88,30.04,10.0,SW,11.5,19.6,N/A,,Scattered Clouds,220,2013-12-06 12:55:00
8:15 AM,71.6,66.2,83,30.04,10.0,SSW,12.7,18.4,N/A,,Mostly Cloudy,210,2013-12-06 13:15:00
8:35 AM,71.6,66.2,83,30.05,10.0,SW,10.4,17.3,N/A,,Mostly Cloudy,220,2013-12-06 13:35:00
8:55 AM,71.6,66.2,83,30.05,10.0,SSW,15.0,19.6,N/A,,Scattered Clouds,210,2013-12-06 13:55:00
9:15 AM,71.6,64.4,78,30.06,10.0,SSW,15.0,20.7,N/A,,Clear,210,2013-12-06 14:15:00
9:35 AM,71.6,64.4,78,30.06,2.5,SSW,12.7,19.6,N/A,,Clear,210,2013-12-06 14:35:00
9:55 AM,73.4,64.4,73,30.07,0.8,SW,13.8,20.7,N/A,,Unknown,220,2013-12-06 14:55:00
10:55 AM,73.4,64.4,73,30.06,1.0,SW,11.5,16.1,N/A,,Clear,220,2013-12-06 15:55:00
11:15 AM,75.2,64.4,69,30.06,1.2,SW,12.7,18.4,N/A,,Clear,220,2013-12-06 16:15:00
11:35 AM,75.2,64.4,69,30.04,1.2,SW,11.5,18.4,N/A,,Clear,230,2013-12-06 16:35:00
11:55 AM,75.2,62.6,65,30.03,1.2,SW,11.5,25.3,N/A,,Clear,230,2013-12-06 16:55:00
12:15 PM,78.8,64.4,61,30.02,1.2,SW,15.0,23.0,N/A,,Clear,220,2013-12-06 17:15:00
12:35 PM,78.8,62.6,57,30.01,1.5,SW,13.8,24.2,N/A,,Clear,230,2013-12-06 17:35:00
12:55 PM,78.8,64.4,61,30.01,1.5,SW,9.2,17.3,N/A,,Clear,230,2013-12-06 17:55:00
1:15 PM,78.8,62.6,57,29.99,1.5,SW,15.0,23.0,N/A,,Clear,220,2013-12-06 18:15:00
1:35 PM,78.8,62.6,57,29.98,1.5,SW,13.8,26.5,N/A,,Clear,220,2013-12-06 18:35:00
1:55 PM,78.8,62.6,57,29.97,1.5,SW,12.7,26.5,N/A,,Clear,220,2013-12-06 18:55:00
2:15 PM,78.8,64.4,61,29.96,1.5,SSW,12.7,20.7,N/A,,Clear,210,2013-12-06 19:15:00
2:35 PM,80.6,62.6,54,29.96,1.5,SW,15.0,24.2,N/A,,Clear,220,2013-12-06 19:35:00
2:55 PM,78.8,62.6,57,29.96,1.8,SSW,13.8,21.9,N/A,,Clear,210,2013-12-06 19:55:00
3:15 PM,78.8,62.6,57,29.96,1.8,SW,15.0,26.5,N/A,,Clear,220,2013-12-06 20:15:00
3:35 PM,78.8,62.6,57,29.96,1.5,SW,9.2,23.0,N/A,,Clear,220,2013-12-06 20:35:00
3:55 PM,78.8,62.6,57,29.97,2.0,SW,8.1,23.0,N/A,,Clear,220,2013-12-06 20:55:00
4:15 PM,78.8,62.6,57,29.97,2.5,SW,8.1,-,N/A,,Clear,220,2013-12-06 21:15:00
4:35 PM,75.2,62.6,65,29.97,3.0,SW,8.1,-,N/A,,Clear,220,2013-12-06 21:35:00
4:55 PM,75.2,62.6,65,29.97,4.0,SSW,6.9,-,N/A,,Clear,210,2013-12-06 21:55:00
5:15 PM,75.2,62.6,65,29.98,3.0,SSW,5.8,-,N/A,,Clear,200,2013-12-06 22:15:00
5:35 PM,73.4,64.4,73,29.98,4.0,South,9.2,-,N/A,,Clear,190,2013-12-06 22:35:00
6:55 PM,73.4,62.6,69,30.00,3.0,South,5.8,-,N/A,,Clear,190,2013-12-06 23:55:00
7:15 PM,71.6,62.6,73,30.00,2.0,South,6.9,-,N/A,,Clear,190,2013-12-07 00:15:00
7:35 PM,69.8,62.6,78,30.00,3.0,South,5.8,-,N/A,,Clear,180,2013-12-07 00:35:00
7:55 PM,71.6,64.4,78,29.99,4.0,South,9.2,-,N/A,,Clear,190,2013-12-07 00:55:00
8:15 PM,69.8,64.4,83,29.99,4.0,South,5.8,-,N/A,,Clear,180,2013-12-07 01:15:00
8:35 PM,71.6,64.4,78,29.99,4.0,South,8.1,-,N/A,,Clear,190,2013-12-07 01:35:00
8:55 PM,69.8,64.4,83,29.99,4.0,South,8.1,-,N/A,,Clear,190,2013-12-07 01:55:00
9:15 PM,71.6,64.4,78,29.99,4.0,South,10.4,-,N/A,,Clear,190,2013-12-07 02:15:00
9:35 PM,71.6,64.4,78,29.99,4.0,South,10.4,-,N/A,,Clear,190,2013-12-07 02:35:00
9:55 PM,71.6,64.4,78,29.99,4.0,SSW,11.5,-,N/A,,Clear,200,2013-12-07 02:55:00
10:15 PM,71.6,64.4,78,30.01,4.0,Calm,Calm,-,N/A,,Clear,0,2013-12-07 03:15:00
10:35 PM,71.6,64.4,78,30.02,4.0,WNW,3.5,-,N/A,,Scattered Clouds,290,2013-12-07 03:35:00
10:55 PM,59.0,53.6,82,30.03,7.0,North,9.2,-,N/A,,Mostly Cloudy,10,2013-12-07 03:55:00
11:15 PM,57.2,53.6,88,30.03,10.0,NNE,3.5,-,N/A,,Overcast,30,2013-12-07 04:15:00
11:35 PM,57.2,53.6,88,30.04,10.0,North,5.8,-,N/A,,Overcast,10,2013-12-07 04:35:00
11:55 PM,55.4,53.6,94,30.05,10.0,North,8.1,-,N/A,,Overcast,350,2013-12-07 04:55:00